Lakeview, Ohio
Current Conditions -  °F | °C
As of 3:50 PM on Thursday 27 Nov 2014 (Local Time) from KEDJ Reporting Station
Broken Clouds Broken Clouds  
Wind Chill: 18°   Ceiling: 1500
Heat Index: 28°   Visibility: 5mi
Dew Point: 25°   Wind: 12mph
Humidity: 86%   Direction: 280°W
Pressure: 30.23"   Gusts: NA
Location:  40.48°N, 83.92°W
Report Text: KEDJ 272050Z AUTO 28010KT 5SM BKN015 BKN022 M02/M04 A3023 RMK AO1
Loading
Personal Weather Stations






























Interactive Weather Map New forecast layout! Learn more

10-Day Weather Forecast

Advertisements
Track Severe Weather on mobile